sensor_id;sensor_type;location;lat;lon;timestamp;pressure;altitude;pressure_sealevel;temperature;humidity
63582;BME280;49727;51.078;17.066;2023-04-16T00:06:09;99880.59;;;8.49;69.73
63582;BME280;49727;51.078;17.066;2023-04-16T00:21:09;99866.72;;;8.12;70.40
63582;BME280;49727;51.078;17.066;2023-04-16T00:36:10;99872.31;;;7.93;71.25
63582;BME280;49727;51.078;17.066;2023-04-16T00:51:10;99880.69;;;7.80;71.54
63582;BME280;49727;51.078;17.066;2023-04-16T01:06:11;99886.41;;;7.59;72.44
63582;BME280;49727;51.078;17.066;2023-04-16T01:21:11;99896.03;;;7.34;72.47
63582;BME280;49727;51.078;17.066;2023-04-16T01:36:12;99905.28;;;7.03;73.43
63582;BME280;49727;51.078;17.066;2023-04-16T01:51:12;99909.00;;;6.92;74.08
63582;BME280;49727;51.078;17.066;2023-04-16T02:06:12;99917.03;;;6.83;74.18
63582;BME280;49727;51.078;17.066;2023-04-16T02:21:13;99906.38;;;6.74;74.74
63582;BME280;49727;51.078;17.066;2023-04-16T02:36:14;99928.16;;;6.68;74.80
63582;BME280;49727;51.078;17.066;2023-04-16T02:51:14;99942.97;;;6.61;75.35
63582;BME280;49727;51.078;17.066;2023-04-16T03:06:14;99949.63;;;6.65;75.60
63582;BME280;49727;51.078;17.066;2023-04-16T03:21:15;99959.91;;;6.68;76.28
63582;BME280;49727;51.078;17.066;2023-04-16T03:36:15;99977.16;;;6.72;76.61
63582;BME280;49727;51.078;17.066;2023-04-16T03:51:15;99988.44;;;6.74;76.29
63582;BME280;49727;51.078;17.066;2023-04-16T04:06:16;100020.00;;;6.86;76.47
63582;BME280;49727;51.078;17.066;2023-04-16T04:21:17;100036.03;;;7.02;76.18
63582;BME280;49727;51.078;17.066;2023-04-16T04:36:17;100026.94;;;7.23;76.44
63582;BME280;49727;51.078;17.066;2023-04-16T04:51:17;100038.75;;;7.47;76.47
63582;BME280;49727;51.078;17.066;2023-04-16T05:06:18;100053.88;;;7.72;76.09
63582;BME280;49727;51.078;17.066;2023-04-16T05:21:18;100066.03;;;8.09;76.18
63582;BME280;49727;51.078;17.066;2023-04-16T05:36:18;100089.88;;;8.70;75.27
63582;BME280;49727;51.078;17.066;2023-04-16T05:51:19;100099.03;;;8.76;74.59
63582;BME280;49727;51.078;17.066;2023-04-16T06:06:22;100124.94;;;9.41;75.21
63582;BME280;49727;51.078;17.066;2023-04-16T06:21:22;100152.88;;;9.70;73.47
63582;BME280;49727;51.078;17.066;2023-04-16T06:36:22;100159.38;;;9.84;73.60
63582;BME280;49727;51.078;17.066;2023-04-16T06:51:23;100153.72;;;11.47;73.95
63582;BME280;49727;51.078;17.066;2023-04-16T07:06:23;100163.47;;;12.99;69.63
63582;BME280;49727;51.078;17.066;2023-04-16T07:21:23;100186.44;;;14.32;68.48
63582;BME280;49727;51.078;17.066;2023-04-16T07:36:25;100191.44;;;15.73;64.41
63582;BME280;49727;51.078;17.066;2023-04-16T07:51:27;100206.97;;;17.37;62.41
63582;BME280;49727;51.078;17.066;2023-04-16T08:06:27;100215.28;;;18.75;58.33
63582;BME280;49727;51.078;17.066;2023-04-16T08:21:27;100214.19;;;19.81;54.49
63582;BME280;49727;51.078;17.066;2023-04-16T08:36:29;100222.03;;;21.08;50.58
63582;BME280;49727;51.078;17.066;2023-04-16T08:51:33;100245.66;;;22.79;44.08
63582;BME280;49727;51.078;17.066;2023-04-16T09:06:35;100245.50;;;24.77;40.30
63582;BME280;49727;51.078;17.066;2023-04-16T09:21:35;100258.84;;;30.38;29.42
63582;BME280;49727;51.078;17.066;2023-04-16T09:36:36;100251.91;;;29.56;27.94
63582;BME280;49727;51.078;17.066;2023-04-16T11:04:57;100264.50;;;44.85;11.64
63582;BME280;49727;51.078;17.066;2023-04-16T11:19:58;100261.44;;;40.54;13.47
63582;BME280;49727;51.078;17.066;2023-04-16T11:34:59;100265.06;;;36.53;15.90
63582;BME280;49727;51.078;17.066;2023-04-16T11:50:23;100274.44;;;33.22;16.35
63582;BME280;49727;51.078;17.066;2023-04-16T12:05:33;100264.06;;;31.15;18.12
63582;BME280;49727;51.078;17.066;2023-04-16T12:20:41;100264.16;;;30.02;20.44
63582;BME280;49727;51.078;17.066;2023-04-16T12:35:41;100260.69;;;26.41;24.23
63582;BME280;49727;51.078;17.066;2023-04-16T12:50:43;100257.50;;;24.11;26.37
63582;BME280;49727;51.078;17.066;2023-04-16T13:05:43;100258.19;;;22.46;28.08
63582;BME280;49727;51.078;17.066;2023-04-16T13:20:44;100258.41;;;21.53;30.01
63582;BME280;49727;51.078;17.066;2023-04-16T13:35:44;100246.50;;;20.42;32.25
63582;BME280;49727;51.078;17.066;2023-04-16T13:50:44;100247.97;;;19.90;33.25
63582;BME280;49727;51.078;17.066;2023-04-16T14:05:45;100245.66;;;19.75;33.70
63582;BME280;49727;51.078;17.066;2023-04-16T14:20:46;100254.94;;;19.12;34.74
63582;BME280;49727;51.078;17.066;2023-04-16T14:35:46;100248.09;;;17.97;36.58
63582;BME280;49727;51.078;17.066;2023-04-16T14:50:46;100256.63;;;17.48;37.52
63582;BME280;49727;51.078;17.066;2023-04-16T15:05:47;100254.28;;;17.00;38.86
63582;BME280;49727;51.078;17.066;2023-04-16T15:20:54;100265.28;;;16.91;39.15
63582;BME280;49727;51.078;17.066;2023-04-16T15:35:54;100267.56;;;16.74;39.50
63582;BME280;49727;51.078;17.066;2023-04-16T15:50:54;100267.97;;;16.71;39.93
63582;BME280;49727;51.078;17.066;2023-04-16T16:05:55;100264.66;;;16.29;40.25
63582;BME280;49727;51.078;17.066;2023-04-16T16:20:56;100275.59;;;15.87;40.72
63582;BME280;49727;51.078;17.066;2023-04-16T16:35:56;100294.50;;;15.17;42.15
63582;BME280;49727;51.078;17.066;2023-04-16T16:50:57;100310.13;;;14.57;43.71
63582;BME280;49727;51.078;17.066;2023-04-16T17:05:57;100324.88;;;14.25;44.64
63582;BME280;49727;51.078;17.066;2023-04-16T17:20:58;100333.84;;;13.95;45.85
63582;BME280;49727;51.078;17.066;2023-04-16T17:35:58;100358.00;;;13.20;48.76
63582;BME280;49727;51.078;17.066;2023-04-16T17:50:58;100380.19;;;12.45;50.23
63582;BME280;49727;51.078;17.066;2023-04-16T18:05:59;100392.31;;;12.01;52.14
63582;BME280;49727;51.078;17.066;2023-04-16T18:20:59;100411.44;;;11.65;53.98
63582;BME280;49727;51.078;17.066;2023-04-16T18:36:00;100427.50;;;11.48;55.45
63582;BME280;49727;51.078;17.066;2023-04-16T18:51:01;100431.19;;;11.31;56.42
63582;BME280;49727;51.078;17.066;2023-04-16T19:06:01;100440.72;;;11.09;57.95
63582;BME280;49727;51.078;17.066;2023-04-16T19:21:02;100453.22;;;10.92;58.67
63582;BME280;49727;51.078;17.066;2023-04-16T19:36:02;100458.53;;;10.83;59.58
63582;BME280;49727;51.078;17.066;2023-04-16T19:51:03;100473.72;;;11.08;59.46
63582;BME280;49727;51.078;17.066;2023-04-16T20:06:04;100473.06;;;11.22;60.16
63582;BME280;49727;51.078;17.066;2023-04-16T20:21:07;100485.53;;;11.30;60.50
63582;BME280;49727;51.078;17.066;2023-04-16T20:36:07;100475.84;;;11.29;61.07
63582;BME280;49727;51.078;17.066;2023-04-16T20:51:08;100474.22;;;11.20;61.64
63582;BME280;49727;51.078;17.066;2023-04-16T21:06:09;100478.38;;;11.14;61.70
63582;BME280;49727;51.078;17.066;2023-04-16T21:21:13;100479.56;;;11.11;62.12
63582;BME280;49727;51.078;17.066;2023-04-16T21:36:14;100485.19;;;11.00;62.64
63582;BME280;49727;51.078;17.066;2023-04-16T21:51:14;100481.53;;;10.84;62.94
63582;BME280;49727;51.078;17.066;2023-04-16T22:06:15;100472.84;;;10.82;63.49
63582;BME280;49727;51.078;17.066;2023-04-16T22:21:15;100464.84;;;10.82;63.85
63582;BME280;49727;51.078;17.066;2023-04-16T22:36:16;100475.19;;;10.77;64.83
63582;BME280;49727;51.078;17.066;2023-04-16T22:51:16;100469.16;;;10.67;64.98
63582;BME280;49727;51.078;17.066;2023-04-16T23:06:16;100471.16;;;10.57;65.56
63582;BME280;49727;51.078;17.066;2023-04-16T23:21:17;100480.47;;;10.53;65.80
63582;BME280;49727;51.078;17.066;2023-04-16T23:36:17;100479.38;;;10.29;66.74
63582;BME280;49727;51.078;17.066;2023-04-16T23:51:17;100473.28;;;10.02;67.52
